Time;durP1;ratioP1;P1;durP2;ratioP2;P2;SDS_P1;SDS_P2;PMS_P1;PMS_P2;Temp;Humidity;BMP_temperature;BMP_pressure;BME280_temperature;BME280_humidity;BME280_pressure;Samples;Min_cycle;Max_cycle;Signal;HPM_P1;HPM_P2
2022/05/21 00:01:20;;;;;;;5.10;3.08;;;15.70;75.30;;;;;;5048763;28;20059;-64
2022/05/21 00:03:46;;;;;;;5.60;3.33;;;15.70;75.30;;;;;;5048645;28;20025;-63
2022/05/21 00:06:13;;;;;;;6.60;3.13;;;15.70;75.50;;;;;;5049407;28;20104;-64
2022/05/21 00:08:40;;;;;;;5.38;2.65;;;15.70;75.50;;;;;;5048248;28;20037;-64
2022/05/21 00:11:07;;;;;;;4.53;2.92;;;15.70;75.70;;;;;;5049500;28;20029;-64
2022/05/21 00:13:33;;;;;;;4.55;3.83;;;15.70;75.80;;;;;;5046851;28;20032;-64
2022/05/21 00:15:59;;;;;;;4.53;2.70;;;15.70;75.80;;;;;;5048995;28;20037;-64
2022/05/21 00:18:26;;;;;;;6.35;3.20;;;15.70;75.80;;;;;;5048915;28;20163;-64
2022/05/21 00:20:52;;;;;;;8.20;2.78;;;15.80;76.50;;;;;;5048746;28;20464;-64
2022/05/21 00:23:24;;;;;;;8.27;3.40;;;15.70;76.00;;;;;;5048823;28;20017;-67
2022/05/21 00:25:56;;;;;;;12.00;3.25;;;15.70;76.20;;;;;;5047842;28;20055;-64
2022/05/21 00:28:23;;;;;;;5.47;3.50;;;15.70;76.10;;;;;;5048006;28;20040;-65
2022/05/21 00:30:50;;;;;;;6.88;3.33;;;15.80;76.30;;;;;;5048415;28;20021;-63
2022/05/21 00:33:17;;;;;;;6.57;3.88;;;15.80;76.40;;;;;;5048707;28;20017;-64
2022/05/21 00:35:43;;;;;;;6.60;3.90;;;15.80;76.40;;;;;;5046956;28;20025;-64
2022/05/21 00:38:10;;;;;;;6.40;4.28;;;15.80;76.50;;;;;;5047996;28;20016;-65
2022/05/21 00:40:38;;;;;;;9.48;4.50;;;15.70;76.50;;;;;;5048981;28;20460;-69
2022/05/21 00:43:05;;;;;;;5.63;3.92;;;15.80;76.60;;;;;;5047572;28;20158;-68
2022/05/21 00:45:32;;;;;;;5.75;3.78;;;15.80;76.60;;;;;;5048442;28;20091;-66
2022/05/21 00:47:58;;;;;;;5.43;4.47;;;15.80;76.50;;;;;;5047775;28;20706;-68
2022/05/21 00:50:29;;;;;;;8.95;3.70;;;15.80;76.50;;;;;;5048447;28;20029;-66
2022/05/21 00:52:57;;;;;;;8.18;3.63;;;15.80;76.70;;;;;;5048263;28;20024;-66
2022/05/21 00:55:32;;;;;;;15.55;4.07;;;15.80;76.90;;;;;;5046926;28;20028;-66
2022/05/21 01:00:50;;;;;;;4.68;3.10;;;15.80;77.80;;;;;;5047357;28;20074;-65
2022/05/21 01:03:17;;;;;;;10.88;3.70;;;15.80;77.50;;;;;;5048193;28;20104;-66
2022/05/21 01:05:46;;;;;;;12.85;3.28;;;15.80;77.50;;;;;;5047428;28;20090;-65
2022/05/21 01:08:13;;;;;;;10.88;3.03;;;15.80;77.60;;;;;;5045289;28;20048;-67
2022/05/21 01:10:46;;;;;;;8.77;4.15;;;15.80;77.80;;;;;;5048760;28;20055;-65
2022/05/21 01:13:18;;;;;;;20.42;4.25;;;15.80;78.30;;;;;;5046812;28;20017;-65
2022/05/21 01:15:47;;;;;;;5.05;3.33;;;15.80;78.40;;;;;;5047843;28;20021;-66
2022/05/21 01:18:13;;;;;;;8.57;3.13;;;15.80;78.60;;;;;;5047307;28;20021;-65
2022/05/21 01:20:47;;;;;;;8.63;3.30;;;15.80;78.90;;;;;;5045308;28;20062;-67
2022/05/21 01:23:14;;;;;;;8.90;3.17;;;15.90;79.10;;;;;;5047443;28;20120;-65
2022/05/21 01:25:42;;;;;;;4.63;3.13;;;15.90;79.10;;;;;;5047759;28;20012;-65
2022/05/21 01:28:12;;;;;;;5.72;2.90;;;15.80;79.00;;;;;;5048255;28;20384;-66
2022/05/21 01:30:48;;;;;;;7.15;2.60;;;15.90;79.10;;;;;;5044821;28;20076;-64
2022/05/21 01:33:18;;;;;;;3.45;2.47;;;15.80;79.20;;;;;;5047876;28;20048;-66
2022/05/21 01:35:45;;;;;;;3.85;1.92;;;15.90;79.50;;;;;;5045458;28;20017;-65
2022/05/21 01:38:14;;;;;;;5.18;2.58;;;15.80;79.50;;;;;;5047890;28;20075;-66
2022/05/21 01:40:41;;;;;;;5.63;2.60;;;15.80;79.70;;;;;;5047257;28;20029;-64
2022/05/21 01:45:53;;;;;;;3.80;2.53;;;15.80;79.80;;;;;;5047626;28;20093;-64
2022/05/21 01:48:21;;;;;;;3.88;1.90;;;15.80;79.80;;;;;;5046644;28;20082;-65
2022/05/21 01:50:49;;;;;;;5.32;3.47;;;15.80;79.70;;;;;;5047674;28;20396;-65
2022/05/21 01:53:16;;;;;;;4.00;2.55;;;15.80;79.60;;;;;;5046144;28;20493;-66
2022/05/21 01:55:44;;;;;;;4.35;2.78;;;15.80;79.40;;;;;;5046988;28;20029;-65
2022/05/21 01:58:11;;;;;;;4.28;2.75;;;15.70;79.30;;;;;;5045914;28;20048;-66
2022/05/21 02:00:40;;;;;;;3.72;2.45;;;15.70;79.30;;;;;;5046343;28;20051;-68
2022/05/21 02:03:08;;;;;;;4.38;2.17;;;15.70;79.30;;;;;;5047442;28;20146;-68
2022/05/21 02:05:35;;;;;;;6.03;2.17;;;15.60;79.20;;;;;;5046304;28;20018;-67
2022/05/21 02:08:02;;;;;;;5.72;3.05;;;15.60;79.10;;;;;;5047332;28;20052;-67
2022/05/21 02:10:29;;;;;;;3.40;1.58;;;15.60;79.00;;;;;;5045670;28;20013;-68
2022/05/21 02:12:55;;;;;;;5.85;1.90;;;15.60;79.20;;;;;;5047128;28;20021;-68
2022/05/21 02:15:22;;;;;;;3.17;1.25;;;15.60;79.20;;;;;;5046951;28;20017;-69
2022/05/21 02:17:48;;;;;;;1.80;1.00;;;15.60;79.10;;;;;;5046310;28;20045;-68
2022/05/21 02:20:15;;;;;;;1.58;1.30;;;15.50;79.00;;;;;;5047097;28;20017;-67
2022/05/21 02:22:42;;;;;;;4.70;1.17;;;15.50;79.00;;;;;;5046018;28;20047;-64
2022/05/21 02:25:09;;;;;;;5.93;1.08;;;15.50;78.90;;;;;;5046711;28;20067;-65
2022/05/21 02:27:35;;;;;;;3.38;1.30;;;15.50;79.00;;;;;;5045668;28;20029;-68
2022/05/21 02:30:04;;;;;;;4.75;1.83;;;15.50;79.00;;;;;;5046512;28;20496;-69
2022/05/21 02:32:30;;;;;;;11.27;1.30;;;15.50;78.80;;;;;;5046866;28;20068;-68
2022/05/21 02:34:57;;;;;;;11.57;5.35;;;15.50;78.80;;;;;;5046050;28;20013;-68
2022/05/21 02:40:08;;;;;;;24.85;17.25;;;15.50;78.80;;;;;;5045950;28;20585;-68
2022/05/21 02:42:43;;;;;;;16.08;9.68;;;15.50;78.70;;;;;;5046826;28;20398;-69
2022/05/21 02:45:16;;;;;;;8.85;6.13;;;15.40;78.40;;;;;;5044337;28;20017;-67
2022/05/21 02:47:44;;;;;;;5.30;2.70;;;15.40;78.30;;;;;;5044563;28;20033;-64
2022/05/21 02:50:12;;;;;;;2.35;1.92;;;15.40;77.90;;;;;;5044076;28;20103;-67
2022/05/21 02:52:39;;;;;;;2.88;1.90;;;15.40;77.70;;;;;;5045462;28;20040;-66
2022/05/21 02:55:09;;;;;;;2.22;1.20;;;15.40;77.60;;;;;;5045603;28;20032;-67
2022/05/21 02:57:36;;;;;;;2.25;0.80;;;15.30;77.40;;;;;;5046008;28;20037;-67
2022/05/21 03:00:10;;;;;;;4.07;1.00;;;15.30;77.40;;;;;;5044234;28;20610;-68
2022/05/21 03:02:36;;;;;;;0.80;0.60;;;15.30;77.50;;;;;;5045730;28;20086;-67
2022/05/21 03:05:04;;;;;;;1.92;0.98;;;15.20;77.40;;;;;;5046350;28;20977;-68
2022/05/21 03:07:35;;;;;;;1.02;0.50;;;15.20;77.40;;;;;;5046839;28;20035;-70
2022/05/21 03:12:50;;;;;;;2.17;0.40;;;15.20;77.50;;;;;;5047197;28;20032;-70
2022/05/21 03:15:19;;;;;;;1.20;0.45;;;15.20;77.60;;;;;;5043743;28;20032;-70
2022/05/21 03:17:47;;;;;;;1.25;0.35;;;15.20;77.70;;;;;;5046303;28;20052;-68
2022/05/21 03:20:15;;;;;;;2.08;0.60;;;15.20;77.70;;;;;;5043471;28;20104;-68
2022/05/21 03:22:41;;;;;;;2.25;0.63;;;15.20;77.80;;;;;;5049544;28;20506;-69
2022/05/21 03:25:10;;;;;;;1.40;0.80;;;15.20;77.80;;;;;;5050040;28;20025;-68
2022/05/21 03:27:37;;;;;;;1.08;0.90;;;15.20;77.80;;;;;;5048950;28;20116;-69
2022/05/21 03:30:10;;;;;;;1.63;0.95;;;15.20;77.80;;;;;;5049807;28;20021;-69
2022/05/21 03:32:36;;;;;;;1.63;1.25;;;15.10;77.50;;;;;;5048279;28;20461;-70
2022/05/21 03:35:04;;;;;;;3.40;1.10;;;15.10;78.10;;;;;;5050227;28;20028;-68
2022/05/21 03:37:30;;;;;;;7.05;1.70;;;15.10;77.50;;;;;;5049244;28;20036;-70
2022/05/21 03:39:57;;;;;;;28.95;20.42;;;15.10;77.50;;;;;;5048415;28;20037;-68
2022/05/21 03:42:24;;;;;;;23.55;17.10;;;15.10;77.50;;;;;;5047762;28;20499;-70
2022/05/21 03:44:50;;;;;;;27.08;22.35;;;15.10;77.80;;;;;;5047177;28;20037;-70
2022/05/21 03:47:17;;;;;;;21.02;16.10;;;15.10;78.00;;;;;;5047216;28;20125;-69
2022/05/21 03:49:43;;;;;;;10.57;9.45;;;15.10;78.20;;;;;;5045761;28;20380;-69
2022/05/21 03:52:10;;;;;;;9.57;5.95;;;15.10;78.50;;;;;;5047971;28;20029;-69
2022/05/21 03:54:36;;;;;;;6.40;3.95;;;15.10;78.60;;;;;;5046538;28;20086;-67
2022/05/21 03:57:04;;;;;;;4.18;2.90;;;15.10;78.90;;;;;;5047779;28;20569;-69
2022/05/21 03:59:30;;;;;;;3.63;2.22;;;15.10;79.00;;;;;;5047448;28;20090;-70
2022/05/21 04:01:57;;;;;;;6.38;2.72;;;15.10;79.10;;;;;;5045904;28;20071;-69
2022/05/21 04:04:23;;;;;;;2.95;2.22;;;15.10;79.10;;;;;;5046789;28;20040;-68
2022/05/21 04:06:50;;;;;;;4.93;2.20;;;15.10;79.10;;;;;;5046487;28;20522;-69
2022/05/21 04:09:17;;;;;;;8.60;3.28;;;15.10;79.10;;;;;;5047178;28;20508;-68
2022/05/21 04:11:43;;;;;;;5.28;2.50;;;15.10;79.10;;;;;;5047015;28;20021;-68
2022/05/21 04:14:12;;;;;;;5.72;3.05;;;15.10;79.10;;;;;;5047554;28;20019;-69
2022/05/21 04:16:39;;;;;;;6.72;3.20;;;15.10;79.10;;;;;;5046178;28;20072;-69
2022/05/21 04:19:25;;;;;;;10.02;4.43;;;15.10;79.10;;;;;;5046149;28;20025;-67
2022/05/21 04:21:53;;;;;;;9.30;3.88;;;15.10;79.10;;;;;;5047179;28;20047;-66
2022/05/21 04:24:19;;;;;;;7.72;3.22;;;15.10;78.90;;;;;;5046091;28;20028;-68
2022/05/21 04:26:46;;;;;;;6.32;4.07;;;15.10;78.90;;;;;;5047639;28;20025;-65
2022/05/21 04:29:16;;;;;;;7.47;3.83;;;15.10;78.90;;;;;;5045846;28;20062;-65
2022/05/21 04:31:43;;;;;;;5.53;3.63;;;15.10;78.90;;;;;;5045230;28;20112;-66
2022/05/21 04:34:10;;;;;;;4.60;3.30;;;15.00;78.90;;;;;;5045330;28;20021;-68
2022/05/21 04:36:37;;;;;;;4.75;3.00;;;15.00;79.00;;;;;;5045998;28;20033;-69
2022/05/21 04:39:04;;;;;;;5.90;3.13;;;15.00;79.10;;;;;;5047194;28;20112;-66
2022/05/21 04:41:32;;;;;;;6.18;3.38;;;15.00;79.20;;;;;;5045804;28;20024;-63
2022/05/21 04:44:00;;;;;;;6.47;3.40;;;15.00;79.30;;;;;;5046649;28;20430;-63
2022/05/21 04:46:26;;;;;;;8.77;3.22;;;15.00;79.40;;;;;;5045288;28;20376;-66
2022/05/21 04:48:53;;;;;;;4.45;3.50;;;15.00;79.30;;;;;;5047290;28;20518;-66
2022/05/21 04:51:19;;;;;;;4.93;2.80;;;15.00;79.10;;;;;;5044113;28;20096;-63
2022/05/21 04:53:46;;;;;;;4.22;3.35;;;15.00;79.00;;;;;;5044915;28;20053;-64
2022/05/21 04:56:13;;;;;;;5.07;2.80;;;14.90;78.90;;;;;;5046000;28;20778;-63
2022/05/21 04:58:40;;;;;;;13.20;4.20;;;15.00;78.90;;;;;;5046188;28;20083;-66
2022/05/21 05:01:08;;;;;;;10.52;4.85;;;15.00;79.00;;;;;;5046044;28;20112;-64
2022/05/21 05:03:35;;;;;;;13.98;6.85;;;15.00;79.40;;;;;;5044684;28;20029;-64
2022/05/21 05:06:02;;;;;;;5.70;4.50;;;15.00;79.70;;;;;;5043529;28;20129;-65
2022/05/21 05:08:29;;;;;;;4.88;3.35;;;15.00;79.50;;;;;;5038612;28;20041;-63
2022/05/21 05:10:55;;;;;;;4.70;3.00;;;15.00;79.30;;;;;;5042161;28;20032;-64
2022/05/21 05:13:22;;;;;;;5.45;3.13;;;14.90;79.10;;;;;;5041408;28;20091;-65
2022/05/21 05:15:49;;;;;;;3.95;2.10;;;15.00;79.20;;;;;;5043039;28;20158;-67
2022/05/21 05:18:23;;;;;;;6.38;2.78;;;14.90;79.10;;;;;;5044874;28;20384;-67
2022/05/21 05:20:50;;;;;;;4.87;2.07;;;14.90;79.20;;;;;;5043699;28;20415;-66
2022/05/21 05:23:17;;;;;;;3.65;2.63;;;14.90;79.20;;;;;;5044425;28;20412;-67
2022/05/21 05:25:44;;;;;;;10.77;3.05;;;14.90;79.30;;;;;;5045240;28;20511;-65
2022/05/21 05:28:18;;;;;;;6.45;2.67;;;14.90;79.40;;;;;;5046249;28;20035;-66
2022/05/21 05:30:47;;;;;;;9.70;3.08;;;14.90;79.40;;;;;;5044520;28;20047;-65
2022/05/21 05:33:14;;;;;;;7.50;3.47;;;14.90;79.50;;;;;;5045523;28;20021;-64
2022/05/21 05:35:41;;;;;;;10.30;3.00;;;14.90;79.60;;;;;;5044866;28;20464;-67
2022/05/21 05:38:13;;;;;;;7.00;3.70;;;14.90;79.80;;;;;;5046411;28;20028;-67
2022/05/21 05:40:42;;;;;;;11.32;4.30;;;14.90;79.80;;;;;;5047659;28;20068;-66
2022/05/21 05:43:09;;;;;;;10.25;7.22;;;14.90;79.70;;;;;;5046049;28;20024;-68
2022/05/21 05:45:36;;;;;;;18.30;12.77;;;14.90;80.00;;;;;;5046187;28;20021;-68
2022/05/21 05:48:02;;;;;;;13.50;10.20;;;14.90;80.10;;;;;;5045752;28;20052;-68
2022/05/21 05:50:29;;;;;;;17.00;11.02;;;14.90;80.10;;;;;;5045030;28;20079;-67
2022/05/21 05:53:01;;;;;;;12.68;11.38;;;14.90;79.90;;;;;;5046327;28;20036;-64
2022/05/21 05:55:27;;;;;;;17.40;11.50;;;14.90;79.50;;;;;;5044675;28;20029;-65
2022/05/21 05:57:54;;;;;;;17.33;10.23;;;14.90;79.20;;;;;;5046446;28;20033;-65
2022/05/21 06:00:21;;;;;;;20.60;11.85;;;14.90;79.00;;;;;;5044806;28;20017;-67
2022/05/21 06:03:01;;;;;;;19.70;13.70;;;14.90;78.70;;;;;;5047293;28;20500;-66
2022/05/21 08:17:22;;;;;;;4.85;1.65;;;15.00;84.80;;;;;;5092289;27;20224;-67
2022/05/21 08:20:01;;;;;;;2.15;1.20;;;15.50;86.40;;;;;;5075806;28;20483;-71
2022/05/21 08:28:18;;;;;;;1.33;1.10;;;15.70;85.80;;;;;;5071319;28;20160;-74
2022/05/21 08:30:46;;;;;;;2.70;0.80;;;15.80;85.70;;;;;;5071996;28;20033;-67
2022/05/21 08:33:15;;;;;;;1.55;0.90;;;15.80;85.40;;;;;;5076947;28;20023;-69
2022/05/21 08:35:42;;;;;;;5.13;1.40;;;15.90;85.20;;;;;;5071858;28;20093;-70
2022/05/21 08:38:10;;;;;;;3.40;1.00;;;15.90;84.80;;;;;;5068663;28;20016;-72
2022/05/21 08:41:03;;;;;;;6.57;1.67;;;16.00;84.70;;;;;;5076434;28;20032;-74
2022/05/21 08:43:48;;;;;;;3.70;1.30;;;16.00;84.50;;;;;;5074068;28;20081;-70
2022/05/21 08:46:20;;;;;;;2.63;1.03;;;16.10;84.20;;;;;;5070979;28;20037;-75
2022/05/21 08:49:33;;;;;;;2.40;1.02;;;16.10;83.90;;;;;;5070795;28;20479;-75
2022/05/21 08:52:02;;;;;;;15.25;2.60;;;16.20;83.70;;;;;;5064119;28;20048;-66
2022/05/21 08:54:40;;;;;;;17.00;4.85;;;16.20;83.50;;;;;;5067691;28;20053;-67
2022/05/21 08:57:10;;;;;;;11.48;4.97;;;16.30;83.40;;;;;;5066740;28;20017;-74
2022/05/21 08:59:45;;;;;;;13.32;3.83;;;16.30;82.90;;;;;;5080514;28;20016;-72
2022/05/21 09:02:16;;;;;;;4.80;3.13;;;16.40;82.90;;;;;;5066211;28;20132;-73
2022/05/21 09:04:43;;;;;;;4.60;2.53;;;16.40;82.60;;;;;;5073715;28;20056;-70
2022/05/21 09:07:20;;;;;;;8.68;2.88;;;16.40;82.40;;;;;;5075046;28;20112;-70
2022/05/21 09:09:54;;;;;;;10.38;2.88;;;16.50;82.10;;;;;;5068859;28;20029;-70
2022/05/21 09:12:33;;;;;;;9.73;2.83;;;16.60;82.00;;;;;;5072816;28;20032;-72
2022/05/21 09:15:04;;;;;;;10.32;3.03;;;16.60;82.00;;;;;;5068210;28;20021;-77
2022/05/21 09:17:30;;;;;;;27.25;3.10;;;16.70;82.10;;;;;;5061181;28;21204;-67
2022/05/21 09:20:04;;;;;;;16.73;9.82;;;16.70;82.00;;;;;;5054243;28;20534;-73
2022/05/21 09:22:31;;;;;;;38.67;11.73;;;16.80;82.00;;;;;;5061179;28;20431;-75
2022/05/21 09:25:00;;;;;;;20.67;9.10;;;16.90;82.10;;;;;;5053125;28;20033;-76
2022/05/21 09:27:38;;;;;;;19.90;7.20;;;16.90;82.40;;;;;;5061835;28;20017;-73
2022/05/21 09:30:27;;;;;;;20.38;5.25;;;17.00;82.60;;;;;;5057498;28;20025;-78
2022/05/21 09:32:57;;;;;;;14.60;7.00;;;17.10;82.40;;;;;;5058195;28;20476;-76
2022/05/21 09:35:48;;;;;;;12.68;6.88;;;17.10;82.00;;;;;;5053544;28;20040;-73
2022/05/21 09:38:24;;;;;;;9.57;5.35;;;17.10;81.60;;;;;;5056956;28;20025;-75
2022/05/21 09:41:10;;;;;;;12.82;3.92;;;17.20;81.50;;;;;;5052361;28;20499;-75
2022/05/21 09:46:26;;;;;;;6.28;3.30;;;17.20;81.20;;;;;;5056476;28;20048;-68
2022/05/21 09:49:10;;;;;;;6.13;2.53;;;17.30;80.90;;;;;;5054682;28;20025;-70
2022/05/21 09:51:40;;;;;;;2.70;2.30;;;17.30;80.80;;;;;;5052349;28;20052;-75
2022/05/21 09:54:28;;;;;;;3.58;2.13;;;17.40;80.50;;;;;;5054307;28;20040;-69
2022/05/21 09:56:57;;;;;;;3.47;2.05;;;17.40;80.00;;;;;;5050887;28;20108;-77
2022/05/21 09:59:30;;;;;;;5.47;2.38;;;17.40;79.60;;;;;;5056899;28;20434;-71
2022/05/21 10:02:01;;;;;;;9.18;2.03;;;17.50;78.90;;;;;;5056070;28;20029;-73
2022/05/21 10:04:48;;;;;;;2.92;2.15;;;17.60;78.50;;;;;;5051898;28;20024;-69
2022/05/21 10:11:02;;;;;;;4.13;3.50;;;17.60;77.80;;;;;;5021762;28;20632;-69
2022/05/21 10:13:38;;;;;;;6.70;2.67;;;17.70;77.30;;;;;;5064049;28;20531;-71
2022/05/21 10:16:19;;;;;;;4.80;2.53;;;17.80;77.10;;;;;;5056419;28;20037;-71
2022/05/21 10:19:12;;;;;;;5.82;2.50;;;17.80;76.50;;;;;;5050291;28;20021;-71
2022/05/21 10:22:01;;;;;;;5.00;2.30;;;17.90;76.30;;;;;;5058204;28;20021;-69
2022/05/21 10:24:46;;;;;;;6.18;2.40;;;18.00;75.80;;;;;;5051266;28;20025;-70
2022/05/21 10:27:40;;;;;;;7.47;3.33;;;18.00;76.10;;;;;;5056105;28;20071;-71
2022/05/21 10:30:48;;;;;;;4.72;2.67;;;18.10;76.30;;;;;;5057561;28;20411;-75
2022/05/21 10:33:34;;;;;;;4.05;2.75;;;18.20;76.40;;;;;;5032064;28;20036;-70
2022/05/21 10:36:07;;;;;;;7.20;3.63;;;18.20;76.20;;;;;;5042633;28;20064;-70
2022/05/21 10:38:54;;;;;;;6.50;2.88;;;18.30;76.00;;;;;;5052064;28;20021;-72
2022/05/21 10:41:49;;;;;;;4.43;2.60;;;18.30;75.90;;;;;;5059820;28;20032;-69
2022/05/21 10:44:34;;;;;;;4.55;2.33;;;18.30;75.50;;;;;;5057415;28;20033;-70
2022/05/21 10:47:25;;;;;;;10.82;3.55;;;18.30;75.40;;;;;;5055385;28;20439;-72
2022/05/21 10:50:18;;;;;;;16.25;3.42;;;18.40;75.50;;;;;;5039777;28;20110;-72
2022/05/21 10:53:23;;;;;;;6.25;3.80;;;18.40;75.30;;;;;;5028724;28;20046;-73
2022/05/21 10:56:06;;;;;;;12.15;4.32;;;18.40;75.00;;;;;;4989557;28;20073;-69
2022/05/21 10:58:49;;;;;;;6.03;4.35;;;18.50;74.80;;;;;;5060715;28;20112;-70
2022/05/21 11:01:34;;;;;;;7.43;3.10;;;18.50;74.90;;;;;;5052495;28;20541;-72
2022/05/21 11:04:25;;;;;;;5.45;2.65;;;18.70;74.80;;;;;;5056315;28;20035;-72
2022/05/21 11:07:08;;;;;;;7.72;3.33;;;18.70;74.40;;;;;;5062835;28;20044;-72
2022/05/21 11:09:52;;;;;;;9.25;3.55;;;18.80;74.10;;;;;;5053196;28;20044;-70
2022/05/21 11:12:52;;;;;;;9.15;3.67;;;18.80;73.80;;;;;;5051359;28;20079;-69
2022/05/21 11:15:39;;;;;;;9.75;3.20;;;18.80;73.30;;;;;;5060503;28;20047;-69
2022/05/21 11:18:17;;;;;;;5.60;3.00;;;18.90;72.80;;;;;;5050053;28;20541;-75
2022/05/21 11:21:03;;;;;;;7.00;4.00;;;18.90;72.70;;;;;;5033763;28;20371;-73
2022/05/21 11:23:57;;;;;;;8.75;4.10;;;18.90;73.20;;;;;;5051710;28;20087;-68
2022/05/21 11:26:39;;;;;;;4.90;3.25;;;19.00;72.20;;;;;;5061991;28;20052;-67
2022/05/21 11:29:44;;;;;;;7.57;3.20;;;19.00;71.90;;;;;;5051513;28;20442;-74
2022/05/21 11:52:31;;;;;;;9.38;3.17;;;19.40;70.80;;;;;;5037564;28;20386;-74
2022/05/21 11:55:19;;;;;;;4.50;3.13;;;19.50;70.90;;;;;;5049885;28;20388;-74
2022/05/21 11:57:52;;;;;;;5.70;3.03;;;19.50;70.40;;;;;;5057678;28;20027;-76
2022/05/21 12:00:18;;;;;;;5.25;2.53;;;19.50;70.00;;;;;;5053167;28;20025;-76
2022/05/21 12:02:54;;;;;;;5.40;2.33;;;19.50;69.50;;;;;;5049516;28;20021;-73
2022/05/21 12:08:20;;;;;;;4.07;2.60;;;19.60;69.40;;;;;;5046300;28;20129;-76
2022/05/21 12:11:36;;;;;;;7.90;3.55;;;19.60;69.20;;;;;;5050371;28;20380;-72
2022/05/21 12:14:15;;;;;;;7.13;4.15;;;19.60;68.80;;;;;;5049149;28;20024;-72
2022/05/21 12:16:44;;;;;;;5.20;2.58;;;19.60;69.00;;;;;;5047163;28;20039;-71
2022/05/21 12:19:31;;;;;;;8.20;3.20;;;19.60;68.60;;;;;;5050303;28;20478;-71
2022/05/21 12:22:03;;;;;;;6.75;1.90;;;19.50;68.30;;;;;;5048683;28;20103;-72
2022/05/21 12:24:34;;;;;;;11.25;4.38;;;19.40;68.30;;;;;;5047603;28;20036;-73
2022/05/21 12:27:02;;;;;;;25.52;8.85;;;19.30;68.60;;;;;;5045957;28;20431;-71
2022/05/21 12:29:39;;;;;;;13.95;5.03;;;19.20;68.90;;;;;;5047243;28;20021;-72
2022/05/21 12:32:12;;;;;;;10.52;4.25;;;19.20;69.70;;;;;;5048507;28;20487;-76
2022/05/21 12:35:17;;;;;;;5.18;2.90;;;19.20;70.20;;;;;;5046501;28;20017;-78
2022/05/21 12:37:47;;;;;;;8.38;2.83;;;19.10;70.50;;;;;;5046266;28;20441;-70
2022/05/21 12:40:29;;;;;;;6.43;2.40;;;19.20;71.00;;;;;;5048574;28;20543;-74
2022/05/21 12:43:03;;;;;;;4.35;2.55;;;19.30;71.20;;;;;;5048392;28;20076;-73
2022/05/21 12:45:36;;;;;;;3.70;1.77;;;19.30;70.80;;;;;;5048567;28;20391;-78
2022/05/21 12:48:28;;;;;;;4.38;1.55;;;19.40;70.50;;;;;;5026005;28;20033;-69
2022/05/21 12:51:03;;;;;;;5.88;1.42;;;19.40;69.80;;;;;;5048958;28;20104;-74
2022/05/21 12:53:37;;;;;;;7.05;1.65;;;19.40;69.70;;;;;;5053679;28;20027;-68
2022/05/21 12:56:20;;;;;;;1.02;0.90;;;19.40;69.50;;;;;;5050105;28;20025;-68
2022/05/21 12:59:00;;;;;;;6.45;1.90;;;19.40;69.60;;;;;;5049442;28;20087;-70
2022/05/21 13:01:29;;;;;;;3.92;1.02;;;19.30;69.80;;;;;;5049756;28;20087;-75
2022/05/21 13:03:56;;;;;;;2.95;1.00;;;19.30;70.20;;;;;;5053009;28;20131;-68
2022/05/21 13:06:26;;;;;;;4.78;0.90;;;19.20;70.50;;;;;;5054366;28;20025;-69
2022/05/21 13:08:53;;;;;;;6.07;0.95;;;19.20;71.10;;;;;;5049445;28;20115;-68
2022/05/21 13:11:23;;;;;;;9.68;0.90;;;19.20;71.70;;;;;;5055048;28;20407;-71
2022/05/21 13:14:12;;;;;;;5.35;1.30;;;19.10;72.10;;;;;;5051998;28;20025;-76
2022/05/21 13:16:50;;;;;;;2.17;0.85;;;19.10;72.60;;;;;;5051109;28;20048;-69
2022/05/21 13:19:29;;;;;;;6.13;2.25;;;19.10;72.70;;;;;;5049438;28;20021;-70
2022/05/21 13:22:31;;;;;;;2.35;0.90;;;19.00;72.80;;;;;;5049809;28;20063;-71
2022/05/21 13:25:09;;;;;;;2.08;1.73;;;19.10;73.10;;;;;;4949923;28;20392;-71
2022/05/21 13:27:51;;;;;;;11.73;3.13;;;19.00;73.20;;;;;;5040178;28;20037;-72
2022/05/21 13:30:21;;;;;;;5.20;1.23;;;19.10;73.10;;;;;;5049927;28;20017;-69
2022/05/21 13:32:56;;;;;;;2.97;1.00;;;19.10;73.10;;;;;;5049732;28;20047;-72
2022/05/21 13:35:36;;;;;;;9.77;1.20;;;19.10;72.80;;;;;;5052660;28;20401;-72
2022/05/21 13:38:06;;;;;;;6.43;0.98;;;19.10;72.60;;;;;;5048182;28;20017;-70
2022/05/21 13:40:48;;;;;;;3.05;0.80;;;19.10;72.60;;;;;;5047417;28;20446;-70
2022/05/21 13:43:15;;;;;;;3.03;1.17;;;19.10;72.60;;;;;;5050014;28;20441;-74
2022/05/21 13:46:00;;;;;;;2.53;0.98;;;19.10;72.70;;;;;;5051007;28;20050;-78
2022/05/21 13:48:33;;;;;;;2.03;0.80;;;19.10;73.00;;;;;;5046995;28;20029;-70
2022/05/21 13:51:00;;;;;;;6.03;0.70;;;19.10;73.10;;;;;;5049118;28;20064;-73
2022/05/21 13:53:29;;;;;;;6.07;0.75;;;19.10;73.20;;;;;;5052740;28;20028;-69
2022/05/21 13:56:03;;;;;;;2.03;0.70;;;19.10;73.30;;;;;;5049384;28;20177;-74
2022/05/21 13:58:40;;;;;;;3.47;0.60;;;19.10;73.50;;;;;;5050099;28;20029;-69
2022/05/21 14:01:22;;;;;;;3.60;0.70;;;19.10;73.50;;;;;;5045883;28;20028;-70
2022/05/21 14:03:48;;;;;;;6.88;1.02;;;19.00;73.50;;;;;;5048424;28;20074;-70
2022/05/21 17:18:41;;;;;;;27.17;20.15;;;17.60;70.00;;;;;;5020947;27;4036882;-71
2022/05/21 17:21:07;;;;;;;23.92;18.92;;;17.60;70.10;;;;;;5139244;27;20022;-73
2022/05/21 17:23:35;;;;;;;31.02;22.58;;;17.60;70.30;;;;;;5157802;27;20102;-75
2022/05/21 17:26:03;;;;;;;30.52;22.35;;;17.60;70.50;;;;;;5152278;27;20023;-74
2022/05/21 17:31:15;;;;;;;29.40;21.45;;;17.50;70.80;;;;;;5148368;27;20401;-72
2022/05/21 17:33:42;;;;;;;39.70;30.92;;;17.50;71.00;;;;;;5151353;27;20066;-73
2022/05/21 17:36:10;;;;;;;34.92;26.83;;;17.50;71.20;;;;;;5146048;27;20576;-75
2022/05/21 17:38:39;;;;;;;29.17;24.40;;;17.50;71.40;;;;;;5149208;27;20140;-75
2022/05/21 17:41:06;;;;;;;31.77;23.52;;;17.50;71.40;;;;;;5123600;27;20592;-70
2022/05/21 17:43:34;;;;;;;37.92;24.63;;;17.50;71.40;;;;;;5148863;27;20101;-72
2022/05/21 17:46:03;;;;;;;31.83;22.58;;;17.50;71.60;;;;;;5146974;27;20433;-72
2022/05/21 17:48:29;;;;;;;28.52;21.48;;;17.50;71.70;;;;;;5148415;27;20051;-71
2022/05/21 17:50:57;;;;;;;31.45;22.35;;;17.40;71.80;;;;;;5146001;27;20054;-70
2022/05/21 17:53:28;;;;;;;27.48;22.13;;;17.40;71.90;;;;;;5146577;27;20018;-70
2022/05/21 17:55:54;;;;;;;28.17;20.15;;;17.40;71.90;;;;;;5149589;27;20019;-71
2022/05/21 17:58:23;;;;;;;26.05;18.83;;;17.40;72.00;;;;;;5144871;27;20043;-75
2022/05/21 18:00:52;;;;;;;25.92;20.45;;;17.40;72.20;;;;;;5144073;27;20030;-79
2022/05/21 18:03:24;;;;;;;26.38;20.20;;;17.30;72.20;;;;;;5141914;27;20067;-78
2022/05/21 18:05:52;;;;;;;19.05;16.50;;;17.30;72.30;;;;;;5128809;27;20061;-75
2022/05/21 18:08:20;;;;;;;17.63;13.65;;;17.30;72.40;;;;;;5143723;27;20058;-74
2022/05/21 18:10:48;;;;;;;16.73;13.18;;;17.30;72.60;;;;;;5146039;27;20104;-74
2022/05/21 18:13:20;;;;;;;12.05;9.93;;;17.30;72.60;;;;;;5142628;27;20027;-74
2022/05/21 18:21:18;;;;;;;40.13;30.93;;;17.30;72.80;;;;;;5146357;27;20543;-72
2022/05/21 18:23:47;;;;;;;26.33;22.00;;;17.20;72.80;;;;;;5147265;27;20027;-73
2022/05/21 18:26:18;;;;;;;18.98;14.65;;;17.20;72.90;;;;;;5145306;27;20038;-74
2022/05/21 18:28:45;;;;;;;20.63;10.90;;;17.20;73.00;;;;;;5146799;27;20090;-76
2022/05/21 18:31:13;;;;;;;11.80;8.60;;;17.10;73.00;;;;;;5142861;27;20051;-75
2022/05/21 18:33:41;;;;;;;12.48;7.63;;;17.20;73.10;;;;;;5145207;27;20061;-73
2022/05/21 18:36:09;;;;;;;12.07;7.57;;;17.10;73.10;;;;;;5147983;27;20030;-73
2022/05/21 18:38:37;;;;;;;12.52;8.38;;;17.10;73.10;;;;;;5145772;27;20011;-75
2022/05/21 18:41:09;;;;;;;9.00;6.90;;;17.10;73.20;;;;;;5144832;27;20099;-74
2022/05/21 18:43:37;;;;;;;15.68;7.22;;;17.10;73.30;;;;;;5148739;27;20018;-70
2022/05/21 18:46:04;;;;;;;9.98;7.65;;;17.10;73.40;;;;;;5144070;27;20019;-71
2022/05/21 18:48:31;;;;;;;14.93;11.50;;;17.10;73.60;;;;;;5147773;27;20023;-72
2022/05/21 18:50:58;;;;;;;20.98;15.88;;;17.10;73.50;;;;;;5144257;27;20014;-70
2022/05/21 18:53:30;;;;;;;25.27;19.60;;;17.00;73.40;;;;;;5149196;27;20026;-68
2022/05/21 18:55:57;;;;;;;21.90;18.58;;;17.00;73.50;;;;;;5146463;27;20037;-69
2022/05/21 18:58:27;;;;;;;21.40;16.52;;;17.00;73.50;;;;;;5146766;27;20018;-72
2022/05/21 19:00:56;;;;;;;18.65;14.93;;;17.00;73.50;;;;;;5148746;27;20488;-69
2022/05/21 19:03:24;;;;;;;21.40;15.68;;;17.00;73.50;;;;;;5149132;27;20042;-72
2022/05/21 19:05:52;;;;;;;34.58;25.55;;;17.00;73.50;;;;;;5147778;27;20042;-70
2022/05/21 19:08:20;;;;;;;36.92;25.17;;;16.90;73.50;;;;;;5145624;27;20019;-70
2022/05/21 19:10:52;;;;;;;30.58;22.23;;;16.90;73.70;;;;;;5147781;27;20018;-70
2022/05/21 19:13:21;;;;;;;22.48;20.02;;;16.90;73.70;;;;;;5146474;27;20128;-73
2022/05/21 19:15:52;;;;;;;28.92;22.50;;;16.90;73.70;;;;;;5147038;27;20038;-73
2022/05/21 19:21:04;;;;;;;45.75;32.45;;;16.90;73.80;;;;;;5143603;27;20044;-73
2022/05/21 19:23:31;;;;;;;50.58;35.50;;;16.90;73.80;;;;;;5148296;27;20396;-71
2022/05/21 19:25:58;;;;;;;58.45;42.20;;;16.80;73.80;;;;;;5145009;27;20376;-71
2022/05/21 19:28:25;;;;;;;61.22;47.75;;;16.90;73.90;;;;;;5148034;27;20061;-72